Main page
METAR-TAF:

METAR-TAF

Airports :

Cuatro Vientos Airport

Madrid-Cuatro Vientos, Spain

latitude: 40-23N, longitude: 003-47W, elevation: 690 m

Current weather observation

The report was made 34 minutes ago, at 09:30 UTC
Wind 3 kt from the East/Northeast, varying between North and East/Southeast
Temperature 28°C
Humidity 37%
Pressure 1020 hPa
Visibility 10 km or more
no clouds below 1500 m and no cumulonimbus

METAR: LEVS 230930Z 06003KT 350V110 CAVOK 28/12 Q1020

Time: 12:04 (10:04 UTC)

Forecast

The report was made 2 hours and 4 minutes ago, at 08:00 UTC
Forecast valid from 23 at 09 UTC to 23 at 18 UTC
Wind 5 kt from variable directions
Visibility 10 km or more
no clouds below 1500 m and no cumulonimbus
Probability 40% :
Temporary
from 23 at 09 UTC to 23 at 11 UTC
Wind 6 kt from the Northeast
Probability 40% :
Temporary
from 23 at 11 UTC to 23 at 17 UTC
Wind 6 kt from the South

TAF: LEVS 230800Z 2309/2318 VRB05KT CAVOK PROB40 TEMPO 2309/2311 05006KT PROB40 TEMPO 2311/2317 17006KT

Weather observations and forecasts of more than 4000 airports (METAR and TAF reports).

The available stations are represented by yellow and red dots on the map.

Hover mouse over dot to see the name of the station.

Then click to see weather observations and forecasts.

To change the map : click on the green buttons with a black cross to zoom in, on the green button with a dash to zoom out, or on the green arrows for adjacent maps.


METAR-TAF: